sensor_id;sensor_type;location;lat;lon;timestamp;pressure;altitude;pressure_sealevel;temperature;humidity
77333;BME280;66408;51.326;12.070;2023-02-17T00:01:28;101213.19;;;7.74;71.67
77333;BME280;66408;51.326;12.070;2023-02-17T00:03:55;101218.06;;;7.72;71.30
77333;BME280;66408;51.326;12.070;2023-02-17T00:06:24;101220.22;;;7.70;71.77
77333;BME280;66408;51.326;12.070;2023-02-17T00:08:51;101224.53;;;7.71;71.39
77333;BME280;66408;51.326;12.070;2023-02-17T00:11:18;101225.38;;;7.71;72.33
77333;BME280;66408;51.326;12.070;2023-02-17T00:13:45;101224.81;;;7.69;71.41
77333;BME280;66408;51.326;12.070;2023-02-17T00:16:15;101218.56;;;7.69;72.15
77333;BME280;66408;51.326;12.070;2023-02-17T00:18:43;101211.53;;;7.68;71.79
77333;BME280;66408;51.326;12.070;2023-02-17T00:21:16;101206.41;;;7.66;72.90
77333;BME280;66408;51.326;12.070;2023-02-17T00:23:44;101197.47;;;7.66;72.64
77333;BME280;66408;51.326;12.070;2023-02-17T00:26:12;101192.88;;;7.66;72.19
77333;BME280;66408;51.326;12.070;2023-02-17T00:28:39;101187.72;;;7.65;72.58
77333;BME280;66408;51.326;12.070;2023-02-17T00:31:11;101188.78;;;7.64;72.56
77333;BME280;66408;51.326;12.070;2023-02-17T00:33:38;101187.13;;;7.57;72.60
77333;BME280;66408;51.326;12.070;2023-02-17T00:36:06;101196.56;;;7.55;72.54
77333;BME280;66408;51.326;12.070;2023-02-17T00:38:33;101188.78;;;7.64;72.37
77333;BME280;66408;51.326;12.070;2023-02-17T00:41:00;101176.63;;;7.71;71.82
77333;BME280;66408;51.326;12.070;2023-02-17T00:43:26;101161.72;;;7.69;72.09
77333;BME280;66408;51.326;12.070;2023-02-17T00:45:53;101158.53;;;7.77;71.68
77333;BME280;66408;51.326;12.070;2023-02-17T00:48:19;101154.44;;;7.69;71.80
77333;BME280;66408;51.326;12.070;2023-02-17T00:50:46;101153.63;;;7.69;72.34
77333;BME280;66408;51.326;12.070;2023-02-17T00:53:13;101162.53;;;7.64;72.40
77333;BME280;66408;51.326;12.070;2023-02-17T00:55:40;101155.75;;;7.67;72.54
77333;BME280;66408;51.326;12.070;2023-02-17T00:58:07;101158.47;;;7.67;72.16
77333;BME280;66408;51.326;12.070;2023-02-17T01:00:33;101169.84;;;7.69;72.15
77333;BME280;66408;51.326;12.070;2023-02-17T01:03:00;101177.50;;;7.77;71.33
77333;BME280;66408;51.326;12.070;2023-02-17T01:05:26;101169.34;;;7.72;71.95
77333;BME280;66408;51.326;12.070;2023-02-17T01:07:53;101171.00;;;7.78;71.08
77333;BME280;66408;51.326;12.070;2023-02-17T01:10:20;101171.56;;;7.85;71.31
77333;BME280;66408;51.326;12.070;2023-02-17T01:12:47;101164.53;;;7.89;71.15
77333;BME280;66408;51.326;12.070;2023-02-17T01:15:13;101157.81;;;8.02;70.91
77333;BME280;66408;51.326;12.070;2023-02-17T01:17:40;101150.78;;;8.06;70.88
77333;BME280;66408;51.326;12.070;2023-02-17T01:20:07;101156.75;;;8.13;70.50
77333;BME280;66408;51.326;12.070;2023-02-17T01:22:33;101152.41;;;8.17;70.08
77333;BME280;66408;51.326;12.070;2023-02-17T01:25:00;101146.75;;;8.23;70.17
77333;BME280;66408;51.326;12.070;2023-02-17T01:27:27;101137.53;;;8.29;69.82
77333;BME280;66408;51.326;12.070;2023-02-17T01:29:53;101137.59;;;8.35;69.44
77333;BME280;66408;51.326;12.070;2023-02-17T01:32:20;101131.09;;;8.41;69.61
77333;BME280;66408;51.326;12.070;2023-02-17T01:34:46;101130.03;;;8.37;69.90
77333;BME280;66408;51.326;12.070;2023-02-17T01:37:14;101124.06;;;8.35;69.57
77333;BME280;66408;51.326;12.070;2023-02-17T01:39:40;101118.09;;;8.38;69.44
77333;BME280;66408;51.326;12.070;2023-02-17T01:42:14;101114.03;;;8.40;69.34
77333;BME280;66408;51.326;12.070;2023-02-17T01:47:52;101107.00;;;8.39;69.50
77333;BME280;66408;51.326;12.070;2023-02-17T01:50:21;101111.03;;;8.42;69.99
77333;BME280;66408;51.326;12.070;2023-02-17T01:52:51;101107.25;;;8.38;70.11
77333;BME280;66408;51.326;12.070;2023-02-17T01:55:19;101104.00;;;8.36;70.37
77333;BME280;66408;51.326;12.070;2023-02-17T01:57:48;101100.19;;;8.32;70.42
77333;BME280;66408;51.326;12.070;2023-02-17T02:00:15;101104.56;;;8.38;70.06
77333;BME280;66408;51.326;12.070;2023-02-17T02:02:46;101091.00;;;8.38;70.05
77333;BME280;66408;51.326;12.070;2023-02-17T02:05:15;101091.00;;;8.38;70.61
77333;BME280;66408;51.326;12.070;2023-02-17T02:07:43;101099.13;;;8.38;70.49
77333;BME280;66408;51.326;12.070;2023-02-17T02:10:12;101088.03;;;8.39;70.48
77333;BME280;66408;51.326;12.070;2023-02-17T02:12:42;101091.81;;;8.38;70.76
77333;BME280;66408;51.326;12.070;2023-02-17T02:15:12;101083.13;;;8.46;70.33
77333;BME280;66408;51.326;12.070;2023-02-17T02:17:53;101075.81;;;8.47;70.48
77333;BME280;66408;51.326;12.070;2023-02-17T02:34:46;101046.00;;;8.47;71.60
77333;BME280;66408;51.326;12.070;2023-02-17T02:37:30;101039.25;;;8.49;71.85
77333;BME280;66408;51.326;12.070;2023-02-17T02:40:02;101039.50;;;8.48;72.16
77333;BME280;66408;51.326;12.070;2023-02-17T02:42:31;101031.91;;;8.50;72.13
77333;BME280;66408;51.326;12.070;2023-02-17T02:44:59;101020.81;;;8.51;72.08
77333;BME280;66408;51.326;12.070;2023-02-17T02:47:46;101019.72;;;8.47;72.72
77333;BME280;66408;51.326;12.070;2023-02-17T02:50:24;101024.06;;;8.48;73.24
77333;BME280;66408;51.326;12.070;2023-02-17T02:53:25;101014.84;;;8.49;73.16
77333;BME280;66408;51.326;12.070;2023-02-17T03:04:18;101003.72;;;8.46;73.61
77333;BME280;66408;51.326;12.070;2023-02-17T03:06:53;101011.59;;;8.47;73.98
77333;BME280;66408;51.326;12.070;2023-02-17T03:09:25;101011.31;;;8.49;73.94
77333;BME280;66408;51.326;12.070;2023-02-17T03:11:56;101010.50;;;8.48;74.16
77333;BME280;66408;51.326;12.070;2023-02-17T03:14:23;101013.75;;;8.50;73.58
77333;BME280;66408;51.326;12.070;2023-02-17T03:16:50;101013.75;;;8.50;73.65
77333;BME280;66408;51.326;12.070;2023-02-17T03:19:19;101018.63;;;8.53;73.69
77333;BME280;66408;51.326;12.070;2023-02-17T03:21:51;101006.19;;;8.52;73.61
77333;BME280;66408;51.326;12.070;2023-02-17T03:24:20;101003.97;;;8.54;73.87
77333;BME280;66408;51.326;12.070;2023-02-17T03:26:47;100996.41;;;8.56;73.60
77333;BME280;66408;51.326;12.070;2023-02-17T03:29:13;100999.38;;;8.65;73.56
77333;BME280;66408;51.326;12.070;2023-02-17T03:31:40;100996.13;;;8.63;73.88
77333;BME280;66408;51.326;12.070;2023-02-17T03:34:07;100988.25;;;8.61;74.39
77333;BME280;66408;51.326;12.070;2023-02-17T03:36:34;100983.38;;;8.63;73.82
77333;BME280;66408;51.326;12.070;2023-02-17T03:39:00;100993.97;;;8.65;73.62
77333;BME280;66408;51.326;12.070;2023-02-17T03:41:27;100994.50;;;8.62;73.75
77333;BME280;66408;51.326;12.070;2023-02-17T03:43:54;100985.00;;;8.54;74.03
77333;BME280;66408;51.326;12.070;2023-02-17T03:46:20;100986.38;;;8.57;73.74
77333;BME280;66408;51.326;12.070;2023-02-17T03:48:47;100976.34;;;8.62;73.88
77333;BME280;66408;51.326;12.070;2023-02-17T03:51:16;100973.09;;;8.55;74.01
77333;BME280;66408;51.326;12.070;2023-02-17T03:53:43;100978.50;;;8.60;73.93
77333;BME280;66408;51.326;12.070;2023-02-17T03:56:10;100976.59;;;8.61;73.83
77333;BME280;66408;51.326;12.070;2023-02-17T03:58:37;100981.22;;;8.60;74.03
77333;BME280;66408;51.326;12.070;2023-02-17T04:01:05;100977.16;;;8.63;73.90
77333;BME280;66408;51.326;12.070;2023-02-17T04:03:33;100976.34;;;8.62;73.96
77333;BME280;66408;51.326;12.070;2023-02-17T04:05:59;100987.97;;;8.68;73.71
77333;BME280;66408;51.326;12.070;2023-02-17T04:08:26;100980.66;;;8.69;74.05
77333;BME280;66408;51.326;12.070;2023-02-17T04:10:54;100989.63;;;8.64;74.21
77333;BME280;66408;51.326;12.070;2023-02-17T04:13:22;100978.78;;;8.64;74.20
77333;BME280;66408;51.326;12.070;2023-02-17T04:15:49;100981.19;;;8.65;74.25
77333;BME280;66408;51.326;12.070;2023-02-17T04:18:16;100976.03;;;8.69;73.96
77333;BME280;66408;51.326;12.070;2023-02-17T04:20:43;100983.34;;;8.74;73.67
77333;BME280;66408;51.326;12.070;2023-02-17T04:23:10;100962.75;;;8.73;73.81
77333;BME280;66408;51.326;12.070;2023-02-17T04:25:37;100968.19;;;8.73;73.80
77333;BME280;66408;51.326;12.070;2023-02-17T04:28:04;100969.25;;;8.72;73.97
77333;BME280;66408;51.326;12.070;2023-02-17T04:30:30;100967.38;;;8.72;73.87
77333;BME280;66408;51.326;12.070;2023-02-17T04:32:57;100963.84;;;8.77;73.52
77333;BME280;66408;51.326;12.070;2023-02-17T04:35:24;100970.88;;;8.78;73.57
77333;BME280;66408;51.326;12.070;2023-02-17T04:37:52;100961.38;;;8.80;73.17
77333;BME280;66408;51.326;12.070;2023-02-17T04:40:18;100968.69;;;8.85;73.35
77333;BME280;66408;51.326;12.070;2023-02-17T04:42:45;100967.28;;;8.92;73.03
77333;BME280;66408;51.326;12.070;2023-02-17T04:45:12;100951.59;;;8.84;73.57
77333;BME280;66408;51.326;12.070;2023-02-17T04:47:39;100957.81;;;8.90;73.71
77333;BME280;66408;51.326;12.070;2023-02-17T04:50:07;100951.00;;;8.92;73.66
77333;BME280;66408;51.326;12.070;2023-02-17T04:52:34;100941.25;;;8.91;73.99
77333;BME280;66408;51.326;12.070;2023-02-17T04:55:01;100947.75;;;8.95;73.64
77333;BME280;66408;51.326;12.070;2023-02-17T04:57:27;100939.63;;;8.95;73.63
77333;BME280;66408;51.326;12.070;2023-02-17T04:59:54;100941.56;;;8.90;73.85
77333;BME280;66408;51.326;12.070;2023-02-17T05:02:20;100930.44;;;8.86;74.22
77333;BME280;66408;51.326;12.070;2023-02-17T05:04:47;100936.41;;;8.78;74.33
77333;BME280;66408;51.326;12.070;2023-02-17T05:07:13;100928.59;;;8.77;74.42
77333;BME280;66408;51.326;12.070;2023-02-17T05:09:40;100934.81;;;8.77;74.46
77333;BME280;66408;51.326;12.070;2023-02-17T05:12:06;100940.47;;;8.81;74.34
77333;BME280;66408;51.326;12.070;2023-02-17T05:14:33;100941.03;;;8.83;74.22
77333;BME280;66408;51.326;12.070;2023-02-17T05:16:59;100931.25;;;8.82;73.92
77333;BME280;66408;51.326;12.070;2023-02-17T05:19:26;100938.34;;;8.78;74.02
77333;BME280;66408;51.326;12.070;2023-02-17T05:21:53;100929.13;;;8.74;74.13
77333;BME280;66408;51.326;12.070;2023-02-17T05:24:19;100932.34;;;8.81;74.03
77333;BME280;66408;51.326;12.070;2023-02-17T05:26:45;100927.19;;;8.84;74.14
77333;BME280;66408;51.326;12.070;2023-02-17T05:29:12;100922.84;;;8.88;74.13
77333;BME280;66408;51.326;12.070;2023-02-17T05:31:38;100920.38;;;8.92;73.86
77333;BME280;66408;51.326;12.070;2023-02-17T05:34:05;100904.09;;;8.97;73.88
77333;BME280;66408;51.326;12.070;2023-02-17T05:36:32;100917.66;;;8.92;73.92
77333;BME280;66408;51.326;12.070;2023-02-17T05:38:58;100911.66;;;9.00;73.36
77333;BME280;66408;51.326;12.070;2023-02-17T05:41:25;100916.03;;;8.91;73.80
77333;BME280;66408;51.326;12.070;2023-02-17T05:43:51;100916.59;;;8.88;74.02
77333;BME280;66408;51.326;12.070;2023-02-17T05:46:18;100918.72;;;8.96;73.84
77333;BME280;66408;51.326;12.070;2023-02-17T05:48:44;100925.50;;;8.98;73.69
77333;BME280;66408;51.326;12.070;2023-02-17T05:51:11;100934.47;;;8.99;73.81
77333;BME280;66408;51.326;12.070;2023-02-17T05:53:43;100930.13;;;8.98;73.62
77333;BME280;66408;51.326;12.070;2023-02-17T05:56:09;100946.41;;;8.93;73.74
77333;BME280;66408;51.326;12.070;2023-02-17T05:58:36;100945.84;;;8.96;74.12
77333;BME280;66408;51.326;12.070;2023-02-17T06:01:10;100938.22;;;9.08;74.03
77333;BME280;66408;51.326;12.070;2023-02-17T06:03:37;100941.72;;;9.14;74.08
77333;BME280;66408;51.326;12.070;2023-02-17T06:06:04;100938.16;;;9.18;74.01
77333;BME280;66408;51.326;12.070;2023-02-17T06:08:33;100931.63;;;9.19;74.14
77333;BME280;66408;51.326;12.070;2023-02-17T06:11:00;100932.72;;;9.18;74.20
77333;BME280;66408;51.326;12.070;2023-02-17T06:13:26;100935.69;;;9.22;73.96
77333;BME280;66408;51.326;12.070;2023-02-17T06:15:56;100945.19;;;9.24;74.06
77333;BME280;66408;51.326;12.070;2023-02-17T06:18:23;100936.78;;;9.21;74.26
77333;BME280;66408;51.326;12.070;2023-02-17T06:20:49;100936.78;;;9.21;74.77
77333;BME280;66408;51.326;12.070;2023-02-17T06:23:16;100937.06;;;9.24;74.43
77333;BME280;66408;51.326;12.070;2023-02-17T06:25:42;100927.56;;;9.22;74.62
77333;BME280;66408;51.326;12.070;2023-02-17T06:28:09;100929.44;;;9.26;74.51
77333;BME280;66408;51.326;12.070;2023-02-17T06:30:35;100927.28;;;9.23;74.67
77333;BME280;66408;51.326;12.070;2023-02-17T06:33:02;100935.09;;;9.30;74.52
77333;BME280;66408;51.326;12.070;2023-02-17T06:35:28;100927.22;;;9.33;74.27
77333;BME280;66408;51.326;12.070;2023-02-17T06:37:55;100928.88;;;9.29;74.72
77333;BME280;66408;51.326;12.070;2023-02-17T06:40:22;100914.19;;;9.35;74.61
77333;BME280;66408;51.326;12.070;2023-02-17T06:42:49;100911.47;;;9.35;74.32
77333;BME280;66408;51.326;12.070;2023-02-17T06:45:16;100899.59;;;9.26;74.56
77333;BME280;66408;51.326;12.070;2023-02-17T06:47:42;100885.22;;;9.26;74.59
77333;BME280;66408;51.326;12.070;2023-02-17T06:50:10;100904.22;;;9.21;75.06
77333;BME280;66408;51.326;12.070;2023-02-17T06:52:36;100881.97;;;9.24;75.06
77333;BME280;66408;51.326;12.070;2023-02-17T06:55:03;100895.53;;;9.24;75.22
77333;BME280;66408;51.326;12.070;2023-02-17T06:57:30;100886.25;;;9.30;75.39
77333;BME280;66408;51.326;12.070;2023-02-17T06:59:56;100878.38;;;9.28;75.39
77333;BME280;66408;51.326;12.070;2023-02-17T07:02:23;100881.09;;;9.28;75.18
77333;BME280;66408;51.326;12.070;2023-02-17T07:04:49;100878.94;;;9.30;75.31
77333;BME280;66408;51.326;12.070;2023-02-17T07:07:16;100873.78;;;9.29;75.33
77333;BME280;66408;51.326;12.070;2023-02-17T07:09:42;100886.78;;;9.37;75.12
77333;BME280;66408;51.326;12.070;2023-02-17T07:12:09;100876.22;;;9.30;75.27
77333;BME280;66408;51.326;12.070;2023-02-17T07:14:35;100872.13;;;9.33;75.36
77333;BME280;66408;51.326;12.070;2023-02-17T07:17:02;100880.81;;;9.35;75.04
77333;BME280;66408;51.326;12.070;2023-02-17T07:19:28;100895.72;;;9.38;75.01
77333;BME280;66408;51.326;12.070;2023-02-17T07:21:55;100894.09;;;9.36;75.05
77333;BME280;66408;51.326;12.070;2023-02-17T07:24:22;100887.00;;;9.41;74.95
77333;BME280;66408;51.326;12.070;2023-02-17T07:26:48;100890.25;;;9.43;75.29
77333;BME280;66408;51.326;12.070;2023-02-17T07:29:15;100880.44;;;9.47;75.08
77333;BME280;66408;51.326;12.070;2023-02-17T07:31:41;100886.34;;;9.59;74.81
77333;BME280;66408;51.326;12.070;2023-02-17T07:34:08;100883.63;;;9.59;74.88
77333;BME280;66408;51.326;12.070;2023-02-17T07:36:34;100884.16;;;9.61;74.77
77333;BME280;66408;51.326;12.070;2023-02-17T07:39:02;100885.19;;;9.65;74.56
77333;BME280;66408;51.326;12.070;2023-02-17T07:41:29;100888.22;;;9.63;74.79
77333;BME280;66408;51.326;12.070;2023-02-17T07:43:58;100893.91;;;9.62;74.70
77333;BME280;66408;51.326;12.070;2023-02-17T07:46:29;100894.13;;;9.65;74.38
77333;BME280;66408;51.326;12.070;2023-02-17T07:48:57;100894.94;;;9.66;74.27
77333;BME280;66408;51.326;12.070;2023-02-17T07:51:25;100895.22;;;9.69;74.31
77333;BME280;66408;51.326;12.070;2023-02-17T07:53:52;100898.72;;;9.75;74.25
77333;BME280;66408;51.326;12.070;2023-02-17T07:56:19;100892.66;;;9.83;73.60
77333;BME280;66408;51.326;12.070;2023-02-17T07:58:49;100883.69;;;9.83;73.21
77333;BME280;66408;51.326;12.070;2023-02-17T08:01:17;100872.25;;;9.86;73.44
77333;BME280;66408;51.326;12.070;2023-02-17T08:03:45;100876.81;;;9.90;73.71
77333;BME280;66408;51.326;12.070;2023-02-17T08:06:14;100872.19;;;9.91;73.70
77333;BME280;66408;51.326;12.070;2023-02-17T08:08:40;100874.34;;;9.94;74.14
77333;BME280;66408;51.326;12.070;2023-02-17T08:11:25;100865.63;;;9.97;73.79
77333;BME280;66408;51.326;12.070;2023-02-17T08:14:14;100861.31;;;9.96;73.92
77333;BME280;66408;51.326;12.070;2023-02-17T08:16:41;100859.03;;;10.03;73.69
77333;BME280;66408;51.326;12.070;2023-02-17T08:19:08;100853.03;;;10.06;73.55
77333;BME280;66408;51.326;12.070;2023-02-17T08:21:34;100838.03;;;10.14;72.75
77333;BME280;66408;51.326;12.070;2023-02-17T08:24:01;100827.75;;;10.11;73.67
77333;BME280;66408;51.326;12.070;2023-02-17T08:26:28;100826.69;;;10.06;73.51
77333;BME280;66408;51.326;12.070;2023-02-17T08:28:54;100825.22;;;10.14;72.93
77333;BME280;66408;51.326;12.070;2023-02-17T08:31:27;100829.28;;;10.22;72.38
77333;BME280;66408;51.326;12.070;2023-02-17T08:33:54;100840.06;;;10.27;72.30
77333;BME280;66408;51.326;12.070;2023-02-17T08:36:22;100841.94;;;10.31;72.26
77333;BME280;66408;51.326;12.070;2023-02-17T08:38:53;100850.25;;;10.40;72.43
77333;BME280;66408;51.326;12.070;2023-02-17T08:41:32;100841.28;;;10.39;71.80
77333;BME280;66408;51.326;12.070;2023-02-17T08:44:00;100834.03;;;10.35;72.17
77333;BME280;66408;51.326;12.070;2023-02-17T08:46:28;100838.94;;;10.33;71.90
77333;BME280;66408;51.326;12.070;2023-02-17T08:48:55;100820.16;;;10.36;71.52
77333;BME280;66408;51.326;12.070;2023-02-17T08:51:23;100821.16;;;10.40;72.16
77333;BME280;66408;51.326;12.070;2023-02-17T08:53:53;100820.31;;;10.45;72.07
77333;BME280;66408;51.326;12.070;2023-02-17T08:56:23;100805.31;;;10.48;71.96
77333;BME280;66408;51.326;12.070;2023-02-17T08:58:52;100806.06;;;10.53;71.41
77333;BME280;66408;51.326;12.070;2023-02-17T09:01:19;100815.53;;;10.56;72.13
77333;BME280;66408;51.326;12.070;2023-02-17T09:03:47;100815.69;;;10.64;71.94
77333;BME280;66408;51.326;12.070;2023-02-17T09:06:15;100819.97;;;10.70;72.24
77333;BME280;66408;51.326;12.070;2023-02-17T09:08:42;100819.13;;;10.75;70.80
77333;BME280;66408;51.326;12.070;2023-02-17T09:11:09;100822.84;;;10.79;70.18
77333;BME280;66408;51.326;12.070;2023-02-17T09:13:36;100826.38;;;10.79;70.76
77333;BME280;66408;51.326;12.070;2023-02-17T09:16:03;100827.75;;;10.77;70.33
77333;BME280;66408;51.326;12.070;2023-02-17T09:18:30;100814.16;;;10.77;70.07
77333;BME280;66408;51.326;12.070;2023-02-17T09:20:57;100830.47;;;10.77;69.80
77333;BME280;66408;51.326;12.070;2023-02-17T09:23:26;100832.41;;;10.76;69.91
77333;BME280;66408;51.326;12.070;2023-02-17T09:26:04;100823.94;;;10.78;69.73
77333;BME280;66408;51.326;12.070;2023-02-17T09:28:31;100818.06;;;10.71;69.73
77333;BME280;66408;51.326;12.070;2023-02-17T09:31:27;100795.22;;;10.72;70.05
77333;BME280;66408;51.326;12.070;2023-02-17T09:33:53;100777.50;;;10.74;70.11
77333;BME280;66408;51.326;12.070;2023-02-17T09:36:23;100771.97;;;10.79;69.74
77333;BME280;66408;51.326;12.070;2023-02-17T09:38:50;100778.97;;;10.86;69.37
77333;BME280;66408;51.326;12.070;2023-02-17T09:41:33;100769.91;;;10.90;69.94
77333;BME280;66408;51.326;12.070;2023-02-17T09:44:05;100760.59;;;10.96;69.34
77333;BME280;66408;51.326;12.070;2023-02-17T09:46:41;100759.19;;;10.99;69.30
77333;BME280;66408;51.326;12.070;2023-02-17T09:49:31;100771.59;;;11.05;68.66
77333;BME280;66408;51.326;12.070;2023-02-17T09:52:17;100773.28;;;11.01;68.67
77333;BME280;66408;51.326;12.070;2023-02-17T09:54:58;100758.00;;;11.05;68.62
77333;BME280;66408;51.326;12.070;2023-02-17T09:57:28;100748.72;;;11.06;68.34
77333;BME280;66408;51.326;12.070;2023-02-17T10:00:02;100749.53;;;11.06;68.64
77333;BME280;66408;51.326;12.070;2023-02-17T10:02:54;100755.84;;;11.02;68.71
77333;BME280;66408;51.326;12.070;2023-02-17T10:05:26;100768.97;;;11.00;69.01
77333;BME280;66408;51.326;12.070;2023-02-17T10:08:11;100753.22;;;10.97;69.32
77333;BME280;66408;51.326;12.070;2023-02-17T10:13:16;100747.28;;;10.95;69.45
77333;BME280;66408;51.326;12.070;2023-02-17T10:15:48;100739.97;;;10.90;69.57
77333;BME280;66408;51.326;12.070;2023-02-17T10:18:23;100728.28;;;10.90;69.62
77333;BME280;66408;51.326;12.070;2023-02-17T10:20:59;100738.53;;;10.98;69.18
77333;BME280;66408;51.326;12.070;2023-02-17T10:23:27;100731.88;;;11.04;68.98
77333;BME280;66408;51.326;12.070;2023-02-17T10:28:52;100734.28;;;11.24;68.61
77333;BME280;66408;51.326;12.070;2023-02-17T10:33:57;100723.53;;;11.46;68.77
77333;BME280;66408;51.326;12.070;2023-02-17T10:39:18;100714.28;;;11.61;67.57
77333;BME280;66408;51.326;12.070;2023-02-17T10:41:53;100710.78;;;11.74;67.52
77333;BME280;66408;51.326;12.070;2023-02-17T10:44:22;100716.22;;;11.88;67.50
77333;BME280;66408;51.326;12.070;2023-02-17T10:46:52;100718.88;;;11.93;67.00
77333;BME280;66408;51.326;12.070;2023-02-17T10:49:33;100706.34;;;11.92;67.03
77333;BME280;66408;51.326;12.070;2023-02-17T10:52:09;100716.97;;;11.94;66.94
77333;BME280;66408;51.326;12.070;2023-02-17T10:55:01;100735.81;;;11.90;67.04
77333;BME280;66408;51.326;12.070;2023-02-17T10:57:53;100707.75;;;11.76;67.46
77333;BME280;66408;51.326;12.070;2023-02-17T11:00:22;100725.50;;;11.73;67.93
77333;BME280;66408;51.326;12.070;2023-02-17T11:02:52;100714.41;;;11.70;67.74
77333;BME280;66408;51.326;12.070;2023-02-17T11:05:31;100713.47;;;11.61;68.18
77333;BME280;66408;51.326;12.070;2023-02-17T11:08:05;100703.06;;;11.63;68.19
77333;BME280;66408;51.326;12.070;2023-02-17T11:10:35;100706.94;;;11.62;68.48
77333;BME280;66408;51.326;12.070;2023-02-17T11:13:05;100712.38;;;11.62;68.22
77333;BME280;66408;51.326;12.070;2023-02-17T11:15:45;100694.72;;;11.59;68.80
77333;BME280;66408;51.326;12.070;2023-02-17T11:18:19;100683.31;;;11.57;68.63
77333;BME280;66408;51.326;12.070;2023-02-17T11:20:47;100675.03;;;11.62;69.04
77333;BME280;66408;51.326;12.070;2023-02-17T11:25:41;100659.00;;;11.74;68.82
77333;BME280;66408;51.326;12.070;2023-02-17T11:28:13;100641.56;;;11.75;68.71
77333;BME280;66408;51.326;12.070;2023-02-17T11:30:49;100639.66;;;11.76;69.06
77333;BME280;66408;51.326;12.070;2023-02-17T11:33:38;100638.75;;;11.80;69.16
77333;BME280;66408;51.326;12.070;2023-02-17T11:36:06;100642.19;;;11.86;68.98
77333;BME280;66408;51.326;12.070;2023-02-17T11:41:05;100630.16;;;11.87;68.82
77333;BME280;66408;51.326;12.070;2023-02-17T11:43:33;100609.50;;;11.86;69.48
77333;BME280;66408;51.326;12.070;2023-02-17T11:48:49;100607.66;;;11.81;69.73
77333;BME280;66408;51.326;12.070;2023-02-17T11:57:09;100583.19;;;12.04;69.62
77333;BME280;66408;51.326;12.070;2023-02-17T12:05:29;100572.69;;;12.11;69.35
77333;BME280;66408;51.326;12.070;2023-02-17T12:08:13;100570.22;;;12.23;69.65
77333;BME280;66408;51.326;12.070;2023-02-17T12:11:03;100570.41;;;12.27;69.67
77333;BME280;66408;51.326;12.070;2023-02-17T12:13:47;100578.06;;;12.24;69.15
77333;BME280;66408;51.326;12.070;2023-02-17T12:16:32;100585.44;;;12.24;69.72
77333;BME280;66408;51.326;12.070;2023-02-17T12:19:29;100579.88;;;12.29;69.44
77333;BME280;66408;51.326;12.070;2023-02-17T12:25:14;100555.78;;;12.22;69.77
77333;BME280;66408;51.326;12.070;2023-02-17T12:30:41;100548.53;;;12.18;69.83
77333;BME280;66408;51.326;12.070;2023-02-17T12:33:25;100549.84;;;12.20;69.85
77333;BME280;66408;51.326;12.070;2023-02-17T12:35:59;100571.44;;;12.17;70.04
77333;BME280;66408;51.326;12.070;2023-02-17T12:38:31;100567.41;;;12.14;70.20
77333;BME280;66408;51.326;12.070;2023-02-17T12:41:06;100564.88;;;12.18;70.39
77333;BME280;66408;51.326;12.070;2023-02-17T12:43:39;100569.03;;;12.15;70.14
77333;BME280;66408;51.326;12.070;2023-02-17T12:46:11;100560.03;;;12.15;70.59
77333;BME280;66408;51.326;12.070;2023-02-17T12:48:50;100556.91;;;12.21;70.42
77333;BME280;66408;51.326;12.070;2023-02-17T12:51:29;100539.91;;;12.24;70.30
77333;BME280;66408;51.326;12.070;2023-02-17T12:54:04;100530.00;;;12.29;70.08
77333;BME280;66408;51.326;12.070;2023-02-17T12:59:19;100522.00;;;12.32;70.15
77333;BME280;66408;51.326;12.070;2023-02-17T13:01:59;100507.88;;;12.30;70.21
77333;BME280;66408;51.326;12.070;2023-02-17T13:04:27;100516.75;;;12.36;69.82
77333;BME280;66408;51.326;12.070;2023-02-17T13:09:38;100502.34;;;12.44;69.44
77333;BME280;66408;51.326;12.070;2023-02-17T13:12:16;100501.84;;;12.42;69.70
77333;BME280;66408;51.326;12.070;2023-02-17T13:14:54;100514.88;;;12.45;69.51
77333;BME280;66408;51.326;12.070;2023-02-17T13:17:21;100491.94;;;12.46;69.07
77333;BME280;66408;51.326;12.070;2023-02-17T13:22:45;100482.69;;;12.55;68.76
77333;BME280;66408;51.326;12.070;2023-02-17T13:25:31;100475.81;;;12.58;68.32
77333;BME280;66408;51.326;12.070;2023-02-17T13:27:59;100483.31;;;12.52;68.84
77333;BME280;66408;51.326;12.070;2023-02-17T13:30:37;100484.00;;;12.58;68.39
77333;BME280;66408;51.326;12.070;2023-02-17T13:35:50;100482.56;;;12.61;68.35
77333;BME280;66408;51.326;12.070;2023-02-17T13:38:30;100474.03;;;12.62;68.27
77333;BME280;66408;51.326;12.070;2023-02-17T13:41:01;100464.25;;;12.61;68.57
77333;BME280;66408;51.326;12.070;2023-02-17T13:43:33;100455.63;;;12.68;68.08
77333;BME280;66408;51.326;12.070;2023-02-17T13:46:05;100436.41;;;12.73;67.66
77333;BME280;66408;51.326;12.070;2023-02-17T13:48:34;100424.34;;;12.74;67.67
77333;BME280;66408;51.326;12.070;2023-02-17T13:51:05;100414.09;;;12.79;67.70
77333;BME280;66408;51.326;12.070;2023-02-17T13:53:36;100430.50;;;12.88;67.34
77333;BME280;66408;51.326;12.070;2023-02-17T13:56:09;100437.06;;;12.87;67.41
77333;BME280;66408;51.326;12.070;2023-02-17T13:58:39;100439.16;;;12.90;67.71
77333;BME280;66408;51.326;12.070;2023-02-17T14:01:12;100443.69;;;12.94;67.27
77333;BME280;66408;51.326;12.070;2023-02-17T14:06:10;100459.78;;;13.05;67.42
77333;BME280;66408;51.326;12.070;2023-02-17T14:08:39;100444.38;;;13.09;66.52
77333;BME280;66408;51.326;12.070;2023-02-17T14:11:12;100453.84;;;13.11;66.96
77333;BME280;66408;51.326;12.070;2023-02-17T14:13:42;100463.53;;;13.17;66.90
77333;BME280;66408;51.326;12.070;2023-02-17T14:19:07;100455.97;;;13.23;66.51